KPAM

Tyndall AFB Airport

Panama City, Florida, USA
METAR KPAM 151456Z 00000KT 10SM FEW022 30/24 A3008 RMK AO2A SLP189 T03030244 52012 $
Observed Flight Rules
Aug-15 @ 14:56 UTC (4 minutes ago) Visual Flight Rules
Visibility Clouds
10 miles
  • Few at 2,200' AGL
Temperatures Readings
Current 30°C / 86°F
Dewpoint 24°C / 75°F
Humidity 70%
Altimeter 30.08" Hg
Pressure 1018.9 hPa
Elevation 5
METAR KPAM 151456Z 00000KT 10SM FEW022 30/24 A3008 RMK AO2A SLP189 T03030244 52012 $
Observed Flight Rules
Aug-15 @ 14:56 UTC
(4 minutes ago)
VFR
Clouds
  • Few at 2,200' AGL
Temperature Dewpoint
30°C / 86°F 24°C / 75°F
Humidity Altimeter Pressure
70% 30.08" Hg 1018.9 hPa